createdAt,value
2023-11-09T00:01:51.276Z,5.25
2023-11-09T00:04:18.074Z,5.57
2023-11-09T00:06:44.856Z,6.40
2023-11-09T00:09:12.068Z,6.15
2023-11-09T00:14:06.253Z,5.38
2023-11-09T00:16:33.026Z,5.85
2023-11-09T00:19:01.394Z,5.25
2023-11-09T00:21:28.169Z,5.45
2023-11-09T00:23:58.341Z,5.55
2023-11-09T00:26:25.759Z,5.32
2023-11-09T00:28:52.832Z,6.28
2023-11-09T00:31:21.055Z,5.25
2023-11-09T00:33:47.940Z,6.07
2023-11-09T00:36:14.774Z,5.65
2023-11-09T00:38:41.595Z,6.40
2023-11-09T00:41:08.423Z,5.63
2023-11-09T00:43:35.254Z,6.03
2023-11-09T00:46:03.002Z,6.55
2023-11-09T00:48:29.786Z,5.72
2023-11-09T00:50:56.663Z,8.73
2023-11-09T00:53:23.486Z,7.35
2023-11-09T00:55:50.242Z,7.95
2023-11-09T00:58:17.522Z,16.20
2023-11-09T01:03:10.919Z,9.85
2023-11-09T01:05:37.711Z,13.93
2023-11-09T01:08:04.590Z,9.57
2023-11-09T01:10:31.392Z,8.50
2023-11-09T01:12:58.187Z,8.80
2023-11-09T01:15:25.065Z,11.02
2023-11-09T01:18:04.608Z,6.95
2023-11-09T01:20:33.584Z,10.90
2023-11-09T01:23:00.642Z,9.05
2023-11-09T01:25:27.466Z,6.85
2023-11-09T01:27:54.730Z,5.88
2023-11-09T01:32:49.264Z,7.95
2023-11-09T01:35:16.118Z,7.97
2023-11-09T01:37:42.894Z,8.25
2023-11-09T01:40:11.069Z,7.93
2023-11-09T01:42:37.883Z,8.30
2023-11-09T01:45:06.623Z,11.93
2023-11-09T01:47:34.454Z,11.88
2023-11-09T01:50:03.288Z,12.80
2023-11-09T01:52:31.545Z,12.63
2023-11-09T01:54:58.742Z,13.45
2023-11-09T01:59:54.230Z,9.65
2023-11-09T02:02:21.957Z,8.23
2023-11-09T02:04:49.074Z,9.05
2023-11-09T02:09:45.800Z,12.13
2023-11-09T02:12:13.553Z,9.35
2023-11-09T02:14:40.348Z,7.88
2023-11-09T02:17:10.082Z,13.93
2023-11-09T02:19:37.088Z,10.60
2023-11-09T02:22:04.952Z,8.95
2023-11-09T02:24:32.203Z,7.80
2023-11-09T02:29:26.451Z,6.38
2023-11-09T02:31:53.332Z,6.82
2023-11-09T02:34:25.236Z,8.77
2023-11-09T02:36:55.516Z,8.13
2023-11-09T02:39:22.968Z,7.53
2023-11-09T02:41:49.725Z,7.57
2023-11-09T02:44:16.483Z,7.18
2023-11-09T02:46:43.298Z,7.05
2023-11-09T02:49:10.073Z,7.60
2023-11-09T02:51:36.902Z,7.28
2023-11-09T02:54:03.771Z,6.70
2023-11-09T02:56:30.576Z,6.82
2023-11-09T02:58:57.409Z,7.50
2023-11-09T03:01:24.235Z,6.28
2023-11-09T03:03:54.369Z,11.65
2023-11-09T03:06:21.328Z,8.52
2023-11-09T03:08:48.981Z,7.95
2023-11-09T03:11:19.788Z,8.13
2023-11-09T03:13:47.696Z,8.57
2023-11-09T03:16:14.727Z,13.25
2023-11-09T03:18:42.531Z,7.80
2023-11-09T03:21:12.479Z,8.23
2023-11-09T03:23:39.258Z,7.22
2023-11-09T03:26:08.796Z,6.93
2023-11-09T03:28:39.100Z,8.32
2023-11-09T03:31:08.065Z,7.22
2023-11-09T03:33:34.898Z,7.28
2023-11-09T03:36:01.671Z,10.30
2023-11-09T03:38:28.531Z,6.35
2023-11-09T03:40:55.611Z,7.90
2023-11-09T03:43:22.574Z,8.40
2023-11-09T03:45:49.360Z,8.40
2023-11-09T03:48:16.337Z,9.57
2023-11-09T03:50:44.170Z,11.57
2023-11-09T03:53:11.500Z,12.38
2023-11-09T03:55:38.314Z,20.45
2023-11-09T03:58:05.291Z,11.40
2023-11-09T04:00:32.245Z,8.82
2023-11-09T04:02:59.086Z,9.50
2023-11-09T04:05:25.875Z,8.85
2023-11-09T04:07:52.695Z,8.07
2023-11-09T04:10:19.471Z,9.25
2023-11-09T04:12:46.409Z,11.20
2023-11-09T04:15:13.322Z,16.45
2023-11-09T04:17:40.267Z,13.88
2023-11-09T04:20:08.577Z,17.13
2023-11-09T04:22:36.066Z,14.35
2023-11-09T04:25:03.380Z,12.75
2023-11-09T04:27:30.534Z,13.15
2023-11-09T04:29:59.353Z,10.65
2023-11-09T04:32:27.171Z,10.57
2023-11-09T04:34:54.494Z,11.90
2023-11-09T04:39:53.133Z,8.27
2023-11-09T04:42:20.929Z,12.50
2023-11-09T04:44:47.973Z,8.70
2023-11-09T04:47:15.376Z,7.30
2023-11-09T04:49:47.303Z,8.10
2023-11-09T04:52:16.412Z,8.02
2023-11-09T04:54:47.205Z,6.88
2023-11-09T04:57:33.520Z,10.02
2023-11-09T05:00:00.376Z,7.32
2023-11-09T05:02:46.365Z,8.48
2023-11-09T05:05:31.924Z,8.82
2023-11-09T05:07:58.715Z,14.60
2023-11-09T05:10:25.924Z,15.25
2023-11-09T05:15:19.862Z,9.57
2023-11-09T05:17:46.889Z,9.75
2023-11-09T05:20:14.726Z,12.45
2023-11-09T05:22:41.614Z,10.15
2023-11-09T05:25:11.691Z,11.02
2023-11-09T05:27:38.518Z,11.93
2023-11-09T05:30:06.131Z,11.07
2023-11-09T05:32:32.933Z,10.07
2023-11-09T05:35:03.304Z,11.65
2023-11-09T05:37:30.316Z,9.35
2023-11-09T05:39:57.103Z,11.10
2023-11-09T05:42:24.038Z,12.88
2023-11-09T05:44:50.834Z,9.77
2023-11-09T05:47:17.577Z,9.82
2023-11-09T05:49:44.390Z,9.15
2023-11-09T05:52:11.203Z,10.73
2023-11-09T05:54:37.978Z,16.45
2023-11-09T05:57:05.711Z,13.65
2023-11-09T05:59:37.143Z,9.80
2023-11-09T06:02:06.012Z,11.20
2023-11-09T06:04:34.036Z,20.67
2023-11-09T06:07:01.700Z,13.20
2023-11-09T06:09:30.222Z,11.90
2023-11-09T06:11:58.052Z,12.93
2023-11-09T06:14:24.883Z,14.35
2023-11-09T06:16:52.197Z,11.30
2023-11-09T06:19:19.079Z,11.52
2023-11-09T06:21:45.867Z,13.73
2023-11-09T06:24:13.091Z,12.27
2023-11-09T06:26:45.250Z,16.05
2023-11-09T06:29:18.037Z,22.52
2023-11-09T06:31:46.373Z,9.32
2023-11-09T06:34:20.045Z,13.00
2023-11-09T06:36:49.162Z,12.02
2023-11-09T06:39:18.074Z,13.82
2023-11-09T06:41:46.536Z,12.15
2023-11-09T06:44:13.939Z,16.15
2023-11-09T06:46:40.933Z,35.92
2023-11-09T06:49:07.949Z,18.83
2023-11-09T06:51:35.545Z,18.73
2023-11-09T06:54:03.504Z,26.13
2023-11-09T06:56:35.653Z,46.42
2023-11-09T06:59:04.484Z,22.23
2023-11-09T07:01:36.328Z,13.27
2023-11-09T07:04:03.459Z,17.73
2023-11-09T07:06:30.293Z,16.83
2023-11-09T07:08:57.066Z,22.60
2023-11-09T07:11:23.815Z,16.40
2023-11-09T07:13:50.971Z,21.83
2023-11-09T07:16:17.961Z,23.67
2023-11-09T07:18:46.568Z,48.85
2023-11-09T07:21:13.395Z,18.33
2023-11-09T07:23:40.290Z,17.08
2023-11-09T07:26:07.317Z,29.77
2023-11-09T07:28:34.470Z,28.08
2023-11-09T07:31:02.543Z,22.40
2023-11-09T07:33:29.564Z,23.85
2023-11-09T07:35:57.748Z,22.80
2023-11-09T07:38:24.675Z,37.03
2023-11-09T07:40:51.449Z,77.95
2023-11-09T07:43:19.573Z,30.95
2023-11-09T07:45:47.037Z,32.95
2023-11-09T07:48:14.388Z,36.65
2023-11-09T07:50:44.650Z,38.92
2023-11-09T07:53:12.378Z,271.70
2023-11-09T07:55:39.246Z,199.80
2023-11-09T07:58:06.484Z,101.80
2023-11-09T08:00:35.218Z,139.88
2023-11-09T08:03:03.345Z,41.38
2023-11-09T08:05:30.925Z,17.83
2023-11-09T08:07:58.350Z,25.50
2023-11-09T08:12:53.911Z,9.05
2023-11-09T08:15:21.030Z,8.52
2023-11-09T08:17:48.949Z,8.13
2023-11-09T08:20:17.133Z,12.02
2023-11-09T08:22:47.259Z,13.48
2023-11-09T08:25:16.471Z,7.68
2023-11-09T08:27:43.743Z,182.00
2023-11-09T08:32:39.732Z,31.80
2023-11-09T08:35:11.510Z,10.82
2023-11-09T08:37:40.302Z,10.38
2023-11-09T08:40:17.970Z,10.07
2023-11-09T08:42:49.860Z,10.77
2023-11-09T08:45:22.739Z,10.00
2023-11-09T08:47:50.839Z,9.63
2023-11-09T08:50:18.064Z,9.23
2023-11-09T08:52:46.004Z,8.65
2023-11-09T08:55:14.513Z,7.43
2023-11-09T08:57:42.874Z,7.20
2023-11-09T09:00:14.673Z,7.75
2023-11-09T09:02:52.702Z,7.03
2023-11-09T09:05:22.843Z,7.40
2023-11-09T09:07:53.201Z,5.82
2023-11-09T09:10:24.752Z,6.15
2023-11-09T09:12:56.318Z,5.38
2023-11-09T09:15:24.296Z,5.45
2023-11-09T09:17:51.736Z,5.50
2023-11-09T09:20:22.270Z,4.82
2023-11-09T09:22:55.770Z,5.30
2023-11-09T09:25:24.230Z,5.30
2023-11-09T09:27:52.369Z,4.75
2023-11-09T09:30:22.577Z,4.70
2023-11-09T09:32:55.024Z,5.13
2023-11-09T09:35:26.342Z,5.60
2023-11-09T09:37:56.290Z,4.57
2023-11-09T09:40:33.069Z,4.68
2023-11-09T09:43:03.607Z,5.13
2023-11-09T09:45:34.447Z,6.18
2023-11-09T09:48:03.079Z,5.85
2023-11-09T09:50:40.455Z,5.28
2023-11-09T09:53:11.598Z,5.40
2023-11-09T09:55:39.139Z,5.13
2023-11-09T09:58:10.560Z,4.78
2023-11-09T10:00:40.506Z,5.25
2023-11-09T10:03:08.521Z,4.93
2023-11-09T10:05:37.795Z,4.88
2023-11-09T10:08:14.728Z,5.07
2023-11-09T10:10:51.081Z,4.75
2023-11-09T10:13:21.470Z,4.97
2023-11-09T10:15:56.633Z,4.28
2023-11-09T10:18:34.405Z,4.88
2023-11-09T10:23:29.436Z,4.68
2023-11-09T10:25:58.332Z,5.07
2023-11-09T10:28:30.272Z,4.00
2023-11-09T10:30:57.438Z,7.38
2023-11-09T10:33:25.507Z,4.95
2023-11-09T10:35:54.090Z,4.97
2023-11-09T10:38:21.669Z,4.20
2023-11-09T10:41:14.146Z,4.28
2023-11-09T10:43:37.410Z,3.97
2023-11-09T10:46:09.990Z,4.00
2023-11-09T10:48:42.524Z,4.63
2023-11-09T10:51:11.163Z,4.28
2023-11-09T10:53:39.490Z,4.70
2023-11-09T10:56:11.924Z,3.83
2023-11-09T10:58:45.662Z,4.25
2023-11-09T11:01:23.335Z,4.97
2023-11-09T11:03:56.281Z,3.88
2023-11-09T11:06:43.034Z,4.13
2023-11-09T11:09:21.543Z,4.35
2023-11-09T11:11:51.054Z,4.55
2023-11-09T11:14:21.521Z,4.03
2023-11-09T11:17:10.005Z,4.10
2023-11-09T11:19:49.592Z,3.88
2023-11-09T11:22:32.685Z,4.00
2023-11-09T11:25:00.973Z,4.18
2023-11-09T11:27:34.223Z,3.97
2023-11-09T11:30:02.773Z,3.78
2023-11-09T11:32:39.949Z,1.63
2023-11-09T11:35:08.556Z,2.42
2023-11-09T11:37:38.464Z,1.83
2023-11-09T11:40:07.457Z,1.40
2023-11-09T11:42:36.266Z,1.35
2023-11-09T11:45:05.006Z,1.50
2023-11-09T11:47:32.881Z,1.40
2023-11-09T11:50:11.765Z,1.63
2023-11-09T11:52:39.498Z,1.15
2023-11-09T11:55:11.997Z,1.52
2023-11-09T11:58:06.160Z,1.58
2023-11-09T12:00:43.513Z,1.42
2023-11-09T12:03:12.729Z,1.02
2023-11-09T12:05:45.224Z,1.45
2023-11-09T12:08:16.839Z,1.17
2023-11-09T12:10:44.706Z,1.60
2023-11-09T12:13:12.834Z,1.58
2023-11-09T12:15:40.419Z,1.23
2023-11-09T12:18:10.217Z,1.48
2023-11-09T12:20:38.310Z,1.50
2023-11-09T12:23:11.611Z,1.20
2023-11-09T12:25:55.191Z,1.65
2023-11-09T12:28:26.128Z,1.48
2023-11-09T12:30:54.027Z,1.88
2023-11-09T12:33:22.018Z,2.17
2023-11-09T12:36:04.839Z,1.90
2023-11-09T12:38:36.427Z,1.63
2023-11-09T12:41:05.586Z,1.55
2023-11-09T12:43:38.499Z,1.55
2023-11-09T12:46:15.934Z,2.45
2023-11-09T12:48:53.557Z,1.80
2023-11-09T12:51:26.128Z,1.85
2023-11-09T12:53:54.068Z,1.70
2023-11-09T12:56:30.194Z,2.35
2023-11-09T12:59:04.608Z,1.58
2023-11-09T13:01:32.588Z,1.63
2023-11-09T13:04:00.241Z,2.00
2023-11-09T13:06:27.730Z,1.65
2023-11-09T13:09:06.205Z,1.38
2023-11-09T13:11:44.022Z,1.80
2023-11-09T13:14:17.711Z,1.77
2023-11-09T13:16:46.025Z,1.60
2023-11-09T13:19:27.485Z,1.52
2023-11-09T13:21:54.501Z,1.60
2023-11-09T13:24:30.427Z,1.42
2023-11-09T13:27:00.951Z,1.55
2023-11-09T13:29:27.789Z,3.50
2023-11-09T13:31:58.059Z,1.70
2023-11-09T13:34:37.630Z,1.63
2023-11-09T13:37:05.924Z,1.58
2023-11-09T14:08:04.140Z,1.77
2023-11-09T14:15:50.378Z,1.58
2023-11-09T14:18:29.494Z,1.52
2023-11-09T14:26:06.061Z,1.92
2023-11-09T14:28:34.267Z,1.90
2023-11-09T14:31:06.491Z,1.92
2023-11-09T14:38:28.630Z,3.00
2023-11-09T14:40:58.103Z,1.92
2023-11-09T14:43:26.820Z,2.05
2023-11-09T14:45:53.933Z,1.50
2023-11-09T14:50:55.037Z,1.65
2023-11-09T14:53:33.648Z,4.80
2023-11-09T14:56:04.284Z,4.25
2023-11-09T14:58:35.630Z,1.40
2023-11-09T15:01:04.439Z,2.00
2023-11-09T15:03:32.890Z,1.88
2023-11-09T15:06:09.965Z,1.83
2023-11-09T15:08:38.659Z,1.75
2023-11-09T15:11:15.405Z,1.83
2023-11-09T15:13:45.508Z,2.83
2023-11-09T15:16:17.524Z,2.10
2023-11-09T15:18:48.214Z,1.60
2023-11-09T15:21:16.942Z,3.55
2023-11-09T15:23:45.020Z,22.00
2023-11-09T15:26:11.762Z,4.78
2023-11-09T15:28:40.057Z,4.93
2023-11-09T15:31:07.162Z,2.50
2023-11-09T15:36:00.602Z,4.03
2023-11-09T15:38:27.501Z,8.80
2023-11-09T15:41:17.258Z,3.15
2023-11-09T15:43:41.416Z,61.78
2023-11-09T15:48:43.578Z,74.32
2023-11-09T17:39:58.698Z,5.05
2023-11-09T17:42:25.631Z,6.97
2023-11-09T17:44:52.391Z,6.60
2023-11-09T17:47:19.514Z,7.47
2023-11-09T17:57:11.293Z,5.93
2023-11-09T17:59:38.361Z,9.85
2023-11-09T18:02:06.704Z,6.93
2023-11-09T18:04:33.651Z,7.35
2023-11-09T18:07:00.433Z,6.93
2023-11-09T18:09:27.191Z,6.53
2023-11-09T18:11:56.564Z,5.70
2023-11-09T18:14:24.719Z,5.35
2023-11-09T18:16:52.608Z,6.57
2023-11-09T20:13:09.987Z,3.57
2023-11-09T20:15:36.945Z,3.75
2023-11-09T20:18:04.251Z,3.90
2023-11-09T20:23:29.645Z,4.03
2023-11-09T20:25:56.435Z,3.88
2023-11-09T20:28:23.278Z,5.82
2023-11-09T20:30:50.030Z,4.15
2023-11-09T20:33:17.068Z,8.48
2023-11-09T20:35:44.039Z,13.50
2023-11-09T20:38:12.959Z,7.60
2023-11-09T20:40:39.815Z,4.55
2023-11-09T20:43:06.568Z,4.55
2023-11-09T20:45:33.391Z,3.83
2023-11-09T20:48:00.485Z,3.95
2023-11-09T20:50:28.458Z,4.90
2023-11-09T20:52:55.350Z,4.03
2023-11-09T20:55:23.732Z,12.13
2023-11-09T20:57:51.447Z,24.13
2023-11-09T21:00:23.072Z,4.22
2023-11-09T21:02:53.918Z,5.57
2023-11-09T21:05:22.424Z,4.47
2023-11-09T21:07:49.733Z,6.78
2023-11-09T21:10:16.534Z,5.13
2023-11-09T21:12:43.413Z,5.00
2023-11-09T21:15:12.237Z,5.40
2023-11-09T21:17:42.552Z,5.55
2023-11-09T21:20:10.938Z,7.03
2023-11-09T21:22:40.311Z,3.70
2023-11-09T21:25:08.070Z,3.63
2023-11-09T21:27:35.498Z,3.67
2023-11-09T21:30:02.582Z,2.92
2023-11-09T21:32:29.705Z,2.75
2023-11-09T21:34:56.675Z,2.42
2023-11-09T21:37:24.265Z,2.72
2023-11-09T21:39:51.060Z,2.45
2023-11-09T21:42:19.698Z,2.40
2023-11-09T21:44:49.462Z,2.60
2023-11-09T21:47:19.565Z,2.60
2023-11-09T21:49:46.748Z,2.13
2023-11-09T21:54:42.732Z,2.40
2023-11-09T21:57:10.879Z,2.17
2023-11-09T21:59:37.684Z,2.50
2023-11-09T22:02:04.914Z,1.80
2023-11-09T22:04:38.131Z,2.47
2023-11-09T22:07:05.183Z,3.05
2023-11-09T22:09:33.315Z,2.60
2023-11-09T22:12:00.371Z,9.23
2023-11-09T22:16:55.497Z,2.72
2023-11-09T22:19:22.265Z,3.38
2023-11-09T22:21:50.802Z,3.50
2023-11-09T22:24:17.669Z,2.83
2023-11-09T22:26:48.164Z,5.40
2023-11-09T22:29:15.443Z,5.95
2023-11-09T22:31:42.243Z,4.43
2023-11-09T22:34:09.184Z,3.45
2023-11-09T22:36:36.173Z,5.10
2023-11-09T22:39:05.786Z,4.95
2023-11-09T22:41:33.008Z,3.70
2023-11-09T22:46:26.510Z,2.63
2023-11-09T22:48:53.747Z,1.92
2023-11-09T22:53:47.380Z,1.85
2023-11-09T22:56:14.459Z,1.67
2023-11-09T22:58:41.301Z,2.28
2023-11-09T23:01:08.082Z,1.88
2023-11-09T23:03:35.026Z,2.25
2023-11-09T23:08:28.828Z,1.63
2023-11-09T23:10:55.687Z,1.73
2023-11-09T23:13:22.665Z,2.03
2023-11-09T23:15:49.614Z,2.45
2023-11-09T23:18:17.455Z,2.30
2023-11-09T23:20:44.917Z,1.83
2023-11-09T23:23:11.942Z,1.80
2023-11-09T23:25:38.696Z,2.13
2023-11-09T23:28:06.197Z,1.58
2023-11-09T23:30:33.208Z,1.98
2023-11-09T23:33:00.205Z,1.92
2023-11-09T23:35:29.664Z,2.00
2023-11-09T23:37:56.911Z,1.25
2023-11-09T23:42:51.499Z,1.58
2023-11-09T23:45:19.159Z,1.88
2023-11-09T23:47:46.700Z,1.38
2023-11-09T23:50:13.897Z,2.10
2023-11-09T23:55:08.428Z,1.58
2023-11-09T23:57:35.689Z,1.95
